Olmsted, Illinois
Current Conditions -  °F | °C
As of 8:35 AM on Saturday 22 Nov 2014 (Local Time) from KCIR Reporting Station
Overcast Overcast  
Wind Chill: 55°   Ceiling: 5000
Heat Index: 55°   Visibility: 10mi
Dew Point: 44°   Wind: 10mph
Humidity: 66%   Direction: 160°SSE
Pressure: 30.23"   Gusts: NA
Location:  37.18°N, 89.09°W
Report Text: KCIR 221435Z AUTO 16009KT 10SM OVC050 13/07 A3023 RMK AO2 T01270066
Loading
Personal Weather Stations






























Interactive Weather Map New forecast layout! Learn more

10-Day Weather Forecast

Advertisements
Track Severe Weather on mobile